Time;durP1;ratioP1;P1;durP2;ratioP2;P2;SDS_P1;SDS_P2;PMS_P1;PMS_P2;Temp;Humidity;BMP_temperature;BMP_pressure;BME280_temperature;BME280_humidity;BME280_pressure;Samples;Min_cycle;Max_cycle;Signal;HPM_P1;HPM_P2
2022/04/20 00:01:06;;;;;;;10.23;5.88;;;;;;;14.47;41.66;102068.75;5072104;28;20094;-77
2022/04/20 00:03:32;;;;;;;9.13;6.25;;;;;;;14.66;40.94;102074.94;5072052;28;20510;-77
2022/04/20 00:05:58;;;;;;;10.50;5.93;;;;;;;14.73;40.62;102075.31;5072140;28;20390;-78
2022/04/20 00:08:23;;;;;;;12.05;6.78;;;;;;;14.77;40.67;102068.09;5072137;28;20024;-77
2022/04/20 00:10:49;;;;;;;13.18;6.38;;;;;;;14.75;40.69;102073.09;5072030;28;20456;-77
2022/04/20 00:13:14;;;;;;;11.40;6.55;;;;;;;14.92;40.34;102059.50;5072073;28;20036;-78
2022/04/20 00:15:40;;;;;;;13.80;6.30;;;;;;;14.84;40.50;102065.75;5070813;28;20028;-77
2022/04/20 00:18:06;;;;;;;9.57;6.70;;;;;;;14.63;40.82;102059.06;5072007;28;20497;-77
2022/04/20 00:20:31;;;;;;;11.10;6.63;;;;;;;14.55;41.23;102060.59;5070611;28;20032;-77
2022/04/20 00:22:57;;;;;;;10.57;7.03;;;;;;;14.50;41.03;102057.94;5071900;28;20067;-77
2022/04/20 00:25:23;;;;;;;12.15;6.65;;;;;;;14.48;41.34;102062.13;5071968;28;20021;-77
2022/04/20 00:27:48;;;;;;;10.68;6.85;;;;;;;14.46;41.32;102064.38;5074244;28;20020;-77
2022/04/20 00:30:14;;;;;;;12.80;7.22;;;;;;;14.63;40.66;102062.63;5075649;28;20475;-77
2022/04/20 00:32:43;;;;;;;13.05;7.50;;;;;;;14.77;40.31;102070.03;5075590;28;20029;-77
2022/04/20 00:35:13;;;;;;;9.57;6.75;;;;;;;14.86;40.23;102062.66;5074334;28;20387;-77
2022/04/20 00:37:41;;;;;;;13.55;7.85;;;;;;;14.73;40.52;102067.06;5075558;28;20025;-77
2022/04/20 00:40:07;;;;;;;14.27;7.07;;;;;;;14.67;40.31;102065.59;5075218;28;20428;-77
2022/04/20 00:42:36;;;;;;;12.25;6.53;;;;;;;14.56;40.56;102059.47;5075465;28;20104;-77
2022/04/20 00:45:02;;;;;;;15.57;7.80;;;;;;;14.42;40.81;102059.44;5075384;28;20025;-77
2022/04/20 00:47:29;;;;;;;8.45;5.53;;;;;;;14.52;40.57;102052.16;5075324;28;20024;-77
2022/04/20 00:49:56;;;;;;;17.38;7.28;;;;;;;14.46;40.67;102048.69;5074015;28;20025;-77
2022/04/20 00:52:22;;;;;;;11.18;6.60;;;;;;;14.48;40.53;102048.38;5075352;28;20107;-77
2022/04/20 00:54:47;;;;;;;9.20;5.63;;;;;;;14.34;40.42;102040.91;5073839;28;20518;-78
2022/04/20 00:57:14;;;;;;;9.63;5.57;;;;;;;14.15;40.65;102042.97;5075344;28;20155;-77
2022/04/20 00:59:41;;;;;;;10.50;6.07;;;;;;;14.03;40.45;102037.16;5075050;28;20032;-77
2022/04/20 01:02:07;;;;;;;8.55;6.45;;;;;;;14.01;40.54;102039.41;5075126;28;20035;-77
2022/04/20 01:04:33;;;;;;;8.02;5.85;;;;;;;14.02;40.35;102041.84;5075081;28;20024;-78
2022/04/20 01:07:19;;;;;;;10.38;5.68;;;;;;;13.98;40.31;102042.75;5075086;28;20483;-78
2022/04/20 01:09:45;;;;;;;12.75;5.72;;;;;;;14.03;40.29;102040.72;5090144;28;20414;-78
2022/04/20 01:12:16;;;;;;;9.85;6.18;;;;;;;13.99;40.53;102038.91;5074956;28;20021;-78
2022/04/20 01:14:42;;;;;;;10.07;6.18;;;;;;;13.99;40.64;102044.41;5074952;28;20021;-77
2022/04/20 01:17:08;;;;;;;13.30;6.97;;;;;;;13.99;40.64;102047.16;5074840;28;20386;-77
2022/04/20 01:19:40;;;;;;;13.57;6.05;;;;;;;14.07;40.71;102041.75;5074752;28;20024;-78
2022/04/20 01:22:09;;;;;;;13.93;6.28;;;;;;;14.37;40.10;102045.00;5074745;28;20024;-78
2022/04/20 01:24:36;;;;;;;11.27;6.45;;;;;;;14.31;40.01;102043.47;5074756;28;20146;-77
2022/04/20 01:27:02;;;;;;;10.65;6.05;;;;;;;14.35;39.88;102038.97;5074634;28;20395;-77
2022/04/20 01:29:29;;;;;;;10.88;5.20;;;;;;;14.26;40.02;102036.13;5074675;28;20375;-77
2022/04/20 01:31:55;;;;;;;9.23;5.25;;;;;;;14.37;39.93;102037.56;5074564;28;20020;-78
2022/04/20 01:34:21;;;;;;;16.95;6.65;;;;;;;14.33;39.89;102039.28;5074477;28;20028;-76
2022/04/20 01:36:47;;;;;;;10.43;5.90;;;;;;;13.98;40.46;102040.00;5074458;28;20033;-76
2022/04/20 01:39:13;;;;;;;7.57;5.35;;;;;;;13.83;40.63;102039.19;5074320;28;20086;-76
2022/04/20 01:41:39;;;;;;;9.48;6.13;;;;;;;13.78;40.87;102042.03;5074227;28;20048;-76
2022/04/20 01:44:05;;;;;;;9.27;5.72;;;;;;;13.79;40.84;102031.84;5074398;28;20093;-76
2022/04/20 01:46:31;;;;;;;13.45;5.88;;;;;;;14.00;40.28;102035.03;5072981;28;20031;-76
2022/04/20 01:48:57;;;;;;;9.50;5.53;;;;;;;13.83;40.71;102030.94;5074233;28;20107;-76
2022/04/20 01:54:07;;;;;;;10.00;5.47;;;;;;;13.69;41.12;102032.06;5074182;28;20102;-75
2022/04/20 01:56:33;;;;;;;11.15;6.13;;;;;;;13.65;40.95;102026.34;5074070;28;20379;-76
2022/04/20 01:58:59;;;;;;;11.07;6.57;;;;;;;13.83;40.66;102030.94;5074044;28;20017;-76
2022/04/20 02:04:08;;;;;;;7.97;5.55;;;;;;;14.16;40.02;102031.66;5073952;28;20097;-76
2022/04/20 02:06:34;;;;;;;11.15;6.30;;;;;;;14.18;39.88;102025.88;5073897;28;20028;-77
2022/04/20 02:09:00;;;;;;;10.13;5.80;;;;;;;14.21;39.60;102030.78;5074061;28;20027;-77
2022/04/20 02:11:25;;;;;;;11.73;6.88;;;;;;;14.19;39.89;102030.25;5073727;28;20105;-77
2022/04/20 02:13:51;;;;;;;11.45;7.05;;;;;;;14.12;40.04;102025.16;5073716;28;20029;-77
2022/04/20 02:16:17;;;;;;;13.93;7.53;;;;;;;13.83;40.40;102016.41;5073676;28;20025;-77
2022/04/20 02:18:42;;;;;;;10.15;6.03;;;;;;;13.78;40.44;102019.25;5073590;28;20395;-77
2022/04/20 02:21:08;;;;;;;15.02;7.30;;;;;;;13.68;40.83;102011.16;5073544;28;20542;-78
2022/04/20 02:23:34;;;;;;;12.30;6.97;;;;;;;13.88;40.49;102019.03;5073448;28;20395;-78
2022/04/20 02:25:59;;;;;;;9.43;6.47;;;;;;;13.69;40.58;102023.81;5058296;28;20024;-76
2022/04/20 02:28:25;;;;;;;11.02;6.55;;;;;;;13.54;40.90;102024.91;5053359;28;20556;-76
2022/04/20 02:30:51;;;;;;;10.30;5.97;;;;;;;13.50;40.93;102023.84;5053336;28;20029;-77
2022/04/20 02:33:16;;;;;;;13.20;6.28;;;;;;;13.47;40.88;102024.47;5053282;28;20021;-76
2022/04/20 02:35:42;;;;;;;11.70;6.85;;;;;;;13.44;40.98;102022.31;5053250;28;20091;-76
2022/04/20 02:38:10;;;;;;;16.45;7.38;;;;;;;13.43;40.98;102024.25;5053241;28;20017;-76
2022/04/20 02:40:43;;;;;;;12.07;7.35;;;;;;;13.47;40.59;102019.78;5052907;28;20109;-76
2022/04/20 02:43:09;;;;;;;12.13;6.93;;;;;;;13.45;40.48;102021.19;5053224;28;20021;-76
2022/04/20 02:45:35;;;;;;;9.20;6.78;;;;;;;13.39;40.79;102034.22;5053153;28;20032;-77
2022/04/20 02:48:01;;;;;;;12.50;7.13;;;;;;;13.31;40.85;102032.97;5053095;28;20360;-76
2022/04/20 02:50:30;;;;;;;13.35;7.70;;;;;;;13.21;40.77;102030.38;5052541;28;20100;-76
2022/04/20 02:52:57;;;;;;;19.23;7.55;;;;;;;13.31;40.54;102032.16;5052944;28;20033;-76
2022/04/20 02:55:23;;;;;;;10.88;7.10;;;;;;;13.31;40.46;102022.00;5052988;28;20102;-76
2022/04/20 02:57:49;;;;;;;11.45;7.38;;;;;;;13.25;40.66;102017.69;5052966;28;20027;-76
2022/04/20 03:00:16;;;;;;;10.68;7.30;;;;;;;13.08;40.93;102022.88;5052734;28;20025;-76
2022/04/20 03:02:41;;;;;;;10.15;6.80;;;;;;;12.90;41.31;102023.72;5052821;28;20027;-76
2022/04/20 03:05:07;;;;;;;10.65;7.43;;;;;;;12.94;41.26;102008.28;5052782;28;20475;-76
2022/04/20 03:07:33;;;;;;;11.15;7.57;;;;;;;12.98;41.09;102017.53;5052770;28;20508;-76
2022/04/20 03:09:59;;;;;;;11.52;6.82;;;;;;;12.89;41.38;102006.44;5052770;28;20048;-76
2022/04/20 03:12:24;;;;;;;11.07;7.05;;;;;;;13.05;41.16;102009.75;5052715;28;20105;-76
2022/04/20 03:14:54;;;;;;;8.95;6.50;;;;;;;13.16;40.81;102013.16;5051436;28;20033;-76
2022/04/20 03:17:21;;;;;;;7.75;5.93;;;;;;;13.19;40.72;102010.63;5052649;28;20016;-76
2022/04/20 03:19:47;;;;;;;10.02;6.50;;;;;;;13.09;40.90;102001.75;5052441;28;20036;-76
2022/04/20 03:22:13;;;;;;;8.70;6.63;;;;;;;12.95;41.12;102009.91;5052639;28;20025;-76
2022/04/20 03:24:38;;;;;;;10.60;7.32;;;;;;;12.97;40.90;102010.44;5052499;28;20083;-77
2022/04/20 03:27:04;;;;;;;14.07;7.50;;;;;;;13.09;41.03;102013.53;5052507;28;20025;-76
2022/04/20 03:29:30;;;;;;;10.85;6.88;;;;;;;13.14;40.48;102007.94;5052441;28;20091;-77
2022/04/20 03:31:55;;;;;;;11.07;7.13;;;;;;;13.07;40.54;102010.25;5052406;28;20115;-78
2022/04/20 03:34:21;;;;;;;11.43;7.10;;;;;;;12.99;40.80;102009.00;5052372;28;20116;-77
2022/04/20 03:36:47;;;;;;;12.82;7.35;;;;;;;13.31;40.05;102002.78;5052486;28;20033;-76
2022/04/20 03:39:13;;;;;;;9.52;7.07;;;;;;;13.17;40.32;102001.88;5052315;28;20032;-76
2022/04/20 03:41:39;;;;;;;13.88;7.43;;;;;;;12.95;40.98;102010.72;5052087;28;20101;-76
2022/04/20 03:44:05;;;;;;;15.10;7.47;;;;;;;13.05;40.84;102010.56;5052258;28;20025;-76
2022/04/20 03:46:31;;;;;;;11.45;7.10;;;;;;;13.16;40.40;102008.50;5052252;28;20108;-76
2022/04/20 03:48:56;;;;;;;15.65;7.45;;;;;;;12.81;41.08;102017.25;5052197;28;20115;-76
2022/04/20 03:51:22;;;;;;;9.90;7.15;;;;;;;13.01;40.78;102015.03;5052171;28;20033;-76
2022/04/20 03:53:48;;;;;;;11.43;7.28;;;;;;;13.09;40.47;102010.78;5052254;28;20576;-76
2022/04/20 03:56:13;;;;;;;10.75;7.38;;;;;;;13.20;40.20;102020.50;5052239;28;20507;-76
2022/04/20 03:58:39;;;;;;;11.23;7.22;;;;;;;13.15;40.04;102014.25;5052251;28;20057;-76
2022/04/20 04:01:05;;;;;;;8.80;6.72;;;;;;;13.09;40.26;102013.53;5052191;28;20494;-78
2022/04/20 04:03:31;;;;;;;10.52;6.82;;;;;;;13.31;39.89;102010.19;5055739;28;20393;-78
2022/04/20 04:05:57;;;;;;;15.27;7.35;;;;;;;13.32;39.54;102004.41;5056161;28;20029;-77
2022/04/20 04:08:23;;;;;;;18.58;8.48;;;;;;;13.32;39.59;102018.13;5056262;28;20036;-77
2022/04/20 04:10:50;;;;;;;10.55;7.10;;;;;;;13.29;39.82;102012.41;5056153;28;20029;-78
2022/04/20 04:13:16;;;;;;;12.50;7.25;;;;;;;13.26;39.83;102011.09;5083483;28;20024;-76
2022/04/20 04:15:42;;;;;;;11.63;7.18;;;;;;;12.90;40.52;102005.31;5075859;28;20063;-77
2022/04/20 04:18:08;;;;;;;12.82;7.68;;;;;;;12.89;40.42;102011.09;5076012;28;20028;-78
2022/04/20 04:20:33;;;;;;;11.00;6.88;;;;;;;12.85;40.75;102001.84;5075826;28;20101;-76
2022/04/20 04:22:59;;;;;;;17.67;8.95;;;;;;;12.74;40.80;102001.19;5075874;28;20032;-76
2022/04/20 04:25:25;;;;;;;12.82;7.60;;;;;;;12.58;41.23;102010.75;5076080;28;20052;-77
2022/04/20 04:27:50;;;;;;;11.52;7.50;;;;;;;12.61;41.10;102002.72;5075755;28;20409;-76
2022/04/20 04:30:16;;;;;;;16.65;8.85;;;;;;;12.85;40.63;101996.38;5075767;28;20435;-76
2022/04/20 04:32:41;;;;;;;12.07;7.13;;;;;;;12.87;40.72;102000.44;5075633;28;20028;-76
2022/04/20 04:35:08;;;;;;;13.60;8.70;;;;;;;13.01;40.15;101989.53;5075639;28;20025;-76
2022/04/20 04:37:34;;;;;;;15.25;7.95;;;;;;;13.19;39.87;101991.41;5074184;28;20024;-76
2022/04/20 04:40:01;;;;;;;16.98;7.72;;;;;;;13.10;39.76;101986.91;5075135;28;20040;-76
2022/04/20 04:42:27;;;;;;;21.58;9.07;;;;;;;12.97;40.23;101991.22;5075505;28;20036;-76
2022/04/20 04:44:52;;;;;;;12.45;7.70;;;;;;;13.02;40.26;101996.66;5075425;28;20021;-76
2022/04/20 04:50:04;;;;;;;14.30;8.35;;;;;;;12.85;40.40;102007.34;5075664;28;20067;-77
2022/04/20 04:52:31;;;;;;;10.85;6.50;;;;;;;12.87;40.28;102005.09;5075379;28;20029;-75
2022/04/20 04:54:56;;;;;;;18.20;8.10;;;;;;;12.82;40.28;102003.25;5075169;28;20074;-75
2022/04/20 04:57:22;;;;;;;21.48;8.23;;;;;;;12.80;40.19;101999.19;5075077;28;20468;-76
2022/04/20 04:59:48;;;;;;;15.23;7.35;;;;;;;12.88;40.29;102007.56;5073746;28;20470;-76
2022/04/20 05:02:13;;;;;;;14.50;7.82;;;;;;;12.74;40.36;102010.22;5075042;28;20467;-77
2022/04/20 05:04:40;;;;;;;15.43;7.80;;;;;;;12.66;40.49;102010.88;5074955;28;20024;-77
2022/04/20 05:07:06;;;;;;;22.40;8.60;;;;;;;12.55;40.82;102012.16;5074992;28;20024;-76
2022/04/20 05:09:32;;;;;;;12.90;7.40;;;;;;;12.50;40.93;102012.22;5074865;28;20035;-77
2022/04/20 05:11:58;;;;;;;13.88;7.13;;;;;;;12.56;40.75;102004.75;5074897;28;20025;-78
2022/04/20 05:14:24;;;;;;;18.52;11.05;;;;;;;12.56;40.82;102005.56;5074278;28;20154;-77
2022/04/20 05:16:50;;;;;;;23.25;9.65;;;;;;;12.61;40.88;102001.91;5074764;28;20095;-78
2022/04/20 05:19:16;;;;;;;15.45;8.98;;;;;;;12.60;40.73;102001.09;5073367;28;20055;-78
2022/04/20 05:21:41;;;;;;;13.77;8.13;;;;;;;12.73;40.60;102003.09;5074562;28;20032;-77
2022/04/20 05:24:07;;;;;;;16.08;8.77;;;;;;;12.54;41.00;101999.53;5074680;28;20474;-78
2022/04/20 05:26:33;;;;;;;15.65;9.20;;;;;;;12.51;41.20;102000.13;5074585;28;20399;-78
2022/04/20 05:28:58;;;;;;;18.65;8.63;;;;;;;12.62;40.65;102001.63;5074653;28;20032;-77
2022/04/20 05:31:24;;;;;;;15.40;8.55;;;;;;;12.67;40.70;101985.09;5074297;28;20486;-78
2022/04/20 05:33:49;;;;;;;19.77;9.55;;;;;;;12.50;41.37;101987.53;5073161;28;20025;-78
2022/04/20 05:36:18;;;;;;;15.20;9.23;;;;;;;12.30;41.61;101983.13;5074325;28;20113;-77
2022/04/20 05:41:40;;;;;;;14.00;9.20;;;;;;;12.69;40.82;101991.09;5074107;28;20134;-76
2022/04/20 05:44:09;;;;;;;17.80;9.65;;;;;;;12.54;41.37;101987.75;5074336;28;20063;-76
2022/04/20 05:46:36;;;;;;;15.48;8.30;;;;;;;12.90;40.65;101990.78;5074223;28;20115;-77
2022/04/20 05:49:02;;;;;;;16.10;8.93;;;;;;;13.04;40.27;101987.00;5074209;28;20028;-77
2022/04/20 05:51:28;;;;;;;16.42;8.63;;;;;;;12.89;41.02;101989.97;5074057;28;20059;-78
2022/04/20 05:53:54;;;;;;;16.92;8.43;;;;;;;13.08;40.78;101981.72;5074005;28;20109;-78
2022/04/20 05:56:19;;;;;;;12.82;7.90;;;;;;;13.15;40.66;101973.94;5073981;28;20427;-77
2022/04/20 05:58:47;;;;;;;16.10;8.10;;;;;;;13.33;40.69;101978.56;5074011;28;20032;-78
2022/04/20 06:01:14;;;;;;;17.77;9.57;;;;;;;13.38;40.64;101974.13;5073967;28;20116;-78
2022/04/20 06:03:40;;;;;;;16.63;8.85;;;;;;;13.61;40.33;101975.88;5073737;28;20025;-78
2022/04/20 06:06:05;;;;;;;15.98;9.27;;;;;;;13.61;40.14;101973.16;5073327;28;20391;-79
2022/04/20 06:08:31;;;;;;;17.98;10.02;;;;;;;13.56;40.71;101971.28;5073074;28;20110;-78
2022/04/20 06:10:59;;;;;;;21.48;10.23;;;;;;;13.58;40.81;101968.25;5073826;28;20023;-78
2022/04/20 06:13:27;;;;;;;33.92;11.07;;;;;;;13.71;40.59;101970.19;5073721;28;20028;-78
2022/04/20 06:15:54;;;;;;;39.95;11.02;;;;;;;13.55;40.94;101972.41;5073639;28;20491;-79
2022/04/20 06:18:19;;;;;;;30.55;11.38;;;;;;;13.77;40.72;101974.47;5073624;28;20020;-78
2022/04/20 06:20:45;;;;;;;26.75;10.45;;;;;;;13.77;40.63;101971.72;5073473;28;20500;-78
2022/04/20 06:23:12;;;;;;;35.13;12.93;;;;;;;13.68;41.06;101973.56;5073534;28;20024;-77
2022/04/20 06:25:38;;;;;;;22.15;10.23;;;;;;;13.95;40.70;101971.94;5072559;28;20472;-77
2022/04/20 06:28:04;;;;;;;32.85;11.23;;;;;;;14.02;40.41;101961.34;5073497;28;20027;-77
2022/04/20 06:30:29;;;;;;;45.10;12.02;;;;;;;13.93;40.90;101954.94;5073402;28;20405;-78
2022/04/20 06:32:55;;;;;;;38.03;12.50;;;;;;;13.97;41.13;101962.25;5069772;28;20111;-78
2022/04/20 06:35:21;;;;;;;32.42;11.85;;;;;;;14.10;40.98;101968.88;5071649;28;20468;-78
2022/04/20 06:37:47;;;;;;;36.00;13.98;;;;;;;13.92;41.80;101970.63;5073281;28;20055;-78
2022/04/20 06:40:12;;;;;;;37.42;14.50;;;;;;;14.19;41.43;101957.97;5072944;28;20052;-77
2022/04/20 06:42:39;;;;;;;33.00;13.75;;;;;;;14.34;41.08;101966.69;5065866;28;20036;-77
2022/04/20 06:45:05;;;;;;;32.40;13.27;;;;;;;14.52;41.10;101966.91;5057150;28;20033;-77
2022/04/20 06:47:33;;;;;;;51.25;16.50;;;;;;;14.50;41.60;101966.38;5057052;28;20874;-77
2022/04/20 06:49:59;;;;;;;40.20;15.65;;;;;;;14.74;41.31;101966.94;5057698;28;20107;-78
2022/04/20 07:00:37;;;;;;;28.90;13.43;;;;;;;15.08;41.44;101958.09;5056293;28;20043;-78
2022/04/20 07:03:04;;;;;;;23.90;12.98;;;;;;;14.84;42.34;101958.44;5056867;28;20028;-78
2022/04/20 07:05:29;;;;;;;20.83;12.77;;;;;;;15.17;42.07;101950.72;5055531;28;20032;-77
2022/04/20 07:07:55;;;;;;;24.30;11.45;;;;;;;15.27;42.08;101953.22;5056795;28;20032;-77
2022/04/20 07:10:20;;;;;;;19.83;10.18;;;;;;;15.35;42.24;101959.91;5056288;28;20570;-78
2022/04/20 07:12:46;;;;;;;14.85;10.35;;;;;;;15.24;42.93;101953.03;5057377;28;20028;-77
2022/04/20 07:15:12;;;;;;;23.35;11.05;;;;;;;15.14;43.58;101953.28;5061673;28;20078;-77
2022/04/20 07:17:37;;;;;;;21.30;11.68;;;;;;;15.44;43.18;101951.69;5061460;28;20039;-77
2022/04/20 07:20:03;;;;;;;19.17;12.35;;;;;;;16.09;41.93;101949.00;5070789;28;20028;-77
2022/04/20 07:22:29;;;;;;;17.88;10.23;;;;;;;16.33;41.66;101956.06;5072363;28;20032;-77
2022/04/20 07:24:55;;;;;;;23.20;12.55;;;;;;;16.31;42.06;101955.53;5072465;28;20040;-77
2022/04/20 07:27:20;;;;;;;20.98;11.45;;;;;;;16.64;41.68;101947.63;5105461;28;20036;-77
2022/04/20 07:29:46;;;;;;;35.40;13.27;;;;;;;16.89;41.63;101948.78;5087190;28;20493;-78
2022/04/20 07:32:11;;;;;;;36.15;13.05;;;;;;;16.99;41.80;101947.63;5092509;28;20490;-78
2022/04/20 07:34:37;;;;;;;32.70;13.18;;;;;;;17.09;41.85;101947.31;5088404;28;20482;-78
2022/04/20 07:37:03;;;;;;;22.15;11.70;;;;;;;17.16;42.10;101951.19;5080381;28;20081;-77
2022/04/20 07:39:29;;;;;;;23.58;11.75;;;;;;;17.38;42.06;101949.31;5071983;28;20031;-79
2022/04/20 07:41:54;;;;;;;41.58;14.90;;;;;;;17.56;41.80;101941.78;5072159;28;20032;-78
2022/04/20 07:44:20;;;;;;;29.52;14.25;;;;;;;17.42;42.67;101942.81;5070551;28;20145;-78
2022/04/20 07:46:46;;;;;;;19.95;10.45;;;;;;;17.64;42.63;101941.75;5072172;28;20036;-79
2022/04/20 07:51:56;;;;;;;16.67;10.85;;;;;;;17.88;42.78;101943.13;5091934;28;20083;-78
2022/04/20 07:54:21;;;;;;;26.55;11.93;;;;;;;17.79;43.35;101943.19;5091299;28;20048;-78
2022/04/20 07:56:47;;;;;;;19.92;12.40;;;;;;;17.88;43.61;101938.41;5090822;28;20020;-78
2022/04/20 07:59:13;;;;;;;23.58;11.30;;;;;;;18.13;43.53;101944.13;5089849;28;20032;-78
2022/04/20 08:01:39;;;;;;;21.02;11.23;;;;;;;18.34;43.50;101944.97;5070287;28;20025;-78
2022/04/20 08:04:05;;;;;;;21.95;10.25;;;;;;;18.45;43.66;101935.13;5070488;28;20020;-78
2022/04/20 08:06:31;;;;;;;19.05;9.52;;;;;;;18.32;44.30;101933.44;5068755;28;20402;-78
2022/04/20 08:08:56;;;;;;;18.30;10.93;;;;;;;18.66;43.96;101932.34;5070580;28;20036;-78
2022/04/20 08:11:22;;;;;;;13.50;8.80;;;;;;;18.79;43.58;101917.44;5069151;28;20189;-78
2022/04/20 08:16:32;;;;;;;13.95;8.82;;;;;;;18.95;44.01;101916.78;5066054;28;20035;-78
2022/04/20 08:18:57;;;;;;;10.82;7.10;;;;;;;19.06;43.77;101913.25;5068977;28;20016;-78
2022/04/20 08:21:23;;;;;;;19.13;7.57;;;;;;;19.28;43.44;101911.22;5069075;28;20024;-81
2022/04/20 08:23:48;;;;;;;13.73;8.18;;;;;;;19.37;43.54;101904.44;5069689;28;20032;-79
2022/04/20 08:26:14;;;;;;;11.82;7.13;;;;;;;19.38;43.67;101906.03;5069975;28;20031;-79
2022/04/20 08:28:40;;;;;;;12.57;7.72;;;;;;;19.65;43.30;101904.59;5071781;28;20028;-79
2022/04/20 08:31:05;;;;;;;14.13;6.32;;;;;;;19.75;43.06;101905.28;5071927;28;20036;-78
2022/04/20 08:33:32;;;;;;;15.82;6.78;;;;;;;19.77;43.31;101898.22;5071660;28;20027;-78
2022/04/20 08:35:58;;;;;;;10.90;5.45;;;;;;;19.86;43.18;101910.00;5066045;28;20021;-79
2022/04/20 08:38:24;;;;;;;12.32;4.97;;;;;;;20.13;42.62;101902.91;5051586;28;20033;-79
2022/04/20 08:40:52;;;;;;;24.98;7.15;;;;;;;20.47;41.97;101898.00;5051177;28;20056;-80
2022/04/20 08:43:19;;;;;;;10.75;4.82;;;;;;;20.44;41.88;101905.06;5054006;28;20028;-79
2022/04/20 08:45:48;;;;;;;9.65;5.72;;;;;;;20.46;41.85;101904.72;5053092;28;20032;-85
2022/04/20 08:48:14;;;;;;;17.85;6.32;;;;;;;20.09;42.71;101899.22;5062323;28;20060;-82
2022/04/20 08:50:40;;;;;;;15.05;4.40;;;;;;;20.11;42.67;101901.66;5072043;28;20060;-83
2022/04/20 08:53:06;;;;;;;8.20;4.60;;;;;;;20.22;42.33;101902.78;5072886;28;20044;-81
2022/04/20 08:55:33;;;;;;;14.48;3.97;;;;;;;20.28;41.97;101900.59;5073235;28;20107;-81
2022/04/20 08:57:59;;;;;;;7.45;3.85;;;;;;;20.16;42.36;101904.19;5072560;28;20521;-79
2022/04/20 09:00:27;;;;;;;19.67;4.50;;;;;;;20.37;41.95;101896.50;5073307;28;20025;-79
2022/04/20 09:02:58;;;;;;;10.30;4.47;;;;;;;20.76;40.67;101892.09;5072011;28;20402;-80
2022/04/20 09:05:28;;;;;;;13.18;5.30;;;;;;;20.55;40.88;101893.44;5072280;28;20035;-80
2022/04/20 09:07:54;;;;;;;10.10;4.05;;;;;;;20.79;40.57;101890.59;5072930;28;20550;-77
2022/04/20 09:10:21;;;;;;;9.85;5.53;;;;;;;20.75;40.48;101896.03;5073391;28;20025;-76
2022/04/20 09:13:00;;;;;;;10.15;4.53;;;;;;;20.73;40.71;101883.66;5071602;28;20391;-78
2022/04/20 09:15:31;;;;;;;10.82;4.80;;;;;;;20.98;40.46;101885.16;5071711;28;20021;-80
2022/04/20 09:17:58;;;;;;;8.57;4.72;;;;;;;21.10;40.19;101881.50;5071776;28;20066;-81
2022/04/20 09:20:24;;;;;;;12.85;5.95;;;;;;;21.19;40.22;101884.09;5071478;28;20454;-80
2022/04/20 09:23:09;;;;;;;10.43;5.55;;;;;;;21.22;39.97;101881.41;5071505;28;20028;-81
2022/04/20 09:25:41;;;;;;;14.55;6.32;;;;;;;21.44;39.44;101868.88;5071622;28;20051;-80
2022/04/20 09:28:07;;;;;;;9.18;4.28;;;;;;;21.54;39.47;101871.13;5072581;28;20032;-77
2022/04/20 09:30:39;;;;;;;8.45;4.20;;;;;;;21.11;40.15;101876.75;5075756;28;20029;-79
2022/04/20 09:33:09;;;;;;;9.50;4.78;;;;;;;21.43;39.50;101872.03;5067032;28;20037;-78
2022/04/20 09:35:46;;;;;;;10.85;5.28;;;;;;;21.49;39.28;101859.47;5052907;28;20029;-78
2022/04/20 09:38:13;;;;;;;9.23;4.70;;;;;;;21.49;39.50;101868.63;5059764;28;20023;-76
2022/04/20 09:40:40;;;;;;;10.55;4.97;;;;;;;21.62;39.21;101857.41;5071434;28;20384;-78
2022/04/20 09:43:13;;;;;;;9.15;4.47;;;;;;;21.72;38.82;101852.06;5072661;28;20020;-76
2022/04/20 09:45:38;;;;;;;15.82;5.55;;;;;;;21.54;39.09;101851.66;5071239;28;20089;-76
2022/04/20 09:51:13;;;;;;;8.63;3.80;;;;;;;21.57;38.74;101850.13;5072151;28;20027;-77
2022/04/20 09:53:44;;;;;;;19.58;5.95;;;;;;;21.45;38.40;101844.66;5071632;28;20617;-77
2022/04/20 09:56:22;;;;;;;12.95;4.88;;;;;;;21.44;37.98;101840.28;5072342;28;20044;-76
2022/04/20 09:59:02;;;;;;;18.08;4.00;;;;;;;21.42;38.24;101831.50;5072249;28;20051;-77
2022/04/20 10:01:35;;;;;;;;;;;;;;;21.24;38.26;101836.59;5072515;28;20031;-76
2022/04/20 10:04:03;;;;;;;9.40;3.17;;;;;;;21.44;38.03;101832.72;5072206;28;19935;-77
2022/04/20 10:06:30;;;;;;;10.93;2.83;;;;;;;21.38;37.96;101830.59;5073543;28;20482;-76
2022/04/20 10:08:56;;;;;;;9.70;3.42;;;;;;;21.40;37.65;101822.72;5073891;28;20109;-78
2022/04/20 10:11:23;;;;;;;5.95;1.98;;;;;;;21.33;37.68;101826.94;5073813;28;20025;-76
2022/04/20 10:16:39;;;;;;;9.13;3.55;;;;;;;21.37;37.24;101818.66;5073187;28;20513;-76
2022/04/20 10:19:13;;;;;;;6.47;2.25;;;;;;;21.47;37.00;101815.34;5072434;28;20161;-76
2022/04/20 10:21:47;;;;;;;4.20;1.70;;;;;;;21.32;36.87;101810.63;5073466;28;20115;-76
2022/04/20 10:24:22;;;;;;;6.72;1.63;;;;;;;21.38;37.08;101811.13;5073636;28;20056;-76
2022/04/20 10:26:48;;;;;;;3.15;1.25;;;;;;;21.46;36.93;101799.84;5073489;28;20031;-76
2022/04/20 10:29:25;;;;;;;4.82;1.70;;;;;;;21.56;36.18;101790.13;5073504;28;20025;-76
2022/04/20 10:32:06;;;;;;;4.82;1.80;;;;;;;21.67;36.29;101793.94;5072508;28;20103;-77
2022/04/20 10:34:33;;;;;;;6.32;1.60;;;;;;;21.44;36.43;101788.25;5069928;28;20031;-76
2022/04/20 10:37:03;;;;;;;3.05;1.48;;;;;;;21.72;36.09;101784.50;5073176;28;20027;-76
2022/04/20 10:39:36;;;;;;;9.48;1.80;;;;;;;21.69;36.36;101783.28;5073175;28;20047;-76
2022/04/20 10:42:11;;;;;;;5.57;1.20;;;;;;;21.78;36.24;101780.28;5072912;28;20037;-76
2022/04/20 10:44:55;;;;;;;3.78;1.33;;;;;;;21.80;35.20;101781.50;5071550;28;20032;-77
2022/04/20 10:47:56;;;;;;;6.32;1.73;;;;;;;21.95;35.40;101782.63;5073068;28;20552;-76
2022/04/20 10:50:26;;;;;;;5.82;1.42;;;;;;;22.21;35.24;101783.97;5070712;28;20523;-77
2022/04/20 10:53:03;;;;;;;6.28;1.38;;;;;;;22.09;34.89;101777.38;5072400;28;20039;-77
2022/04/20 10:55:29;;;;;;;6.32;1.20;;;;;;;22.20;35.25;101788.72;5073013;28;20471;-76
2022/04/20 10:57:58;;;;;;;5.63;2.47;;;;;;;22.04;35.87;101777.66;5072987;28;20047;-76
2022/04/20 11:00:28;;;;;;;7.32;1.83;;;;;;;22.04;35.97;101780.44;5072893;28;20020;-76
2022/04/20 11:03:00;;;;;;;12.30;2.03;;;;;;;22.17;35.70;101777.53;5073047;28;20504;-76
2022/04/20 11:05:25;;;;;;;4.63;2.25;;;;;;;22.27;35.45;101779.72;5073055;28;20085;-76
2022/04/20 11:08:17;;;;;;;5.28;1.40;;;;;;;22.52;34.75;101774.63;5072782;28;20483;-76
2022/04/20 11:19:10;;;;;;;7.70;1.77;;;;;;;22.49;35.17;101758.66;5072653;28;20021;-76
2022/04/20 11:21:37;;;;;;;5.88;1.40;;;;;;;22.74;34.66;101759.91;5072504;28;20032;-76
2022/04/20 11:24:11;;;;;;;3.65;1.80;;;;;;;22.60;34.58;101752.13;5072674;28;20028;-76
2022/04/20 11:26:54;;;;;;;4.38;1.65;;;;;;;22.39;34.91;101749.75;5072490;28;20030;-76
2022/04/20 11:29:27;;;;;;;8.93;2.58;;;;;;;22.66;34.96;101750.63;5072584;28;20070;-77
2022/04/20 11:32:01;;;;;;;3.15;1.60;;;;;;;22.94;34.53;101749.53;5071239;28;20033;-76
2022/04/20 11:34:28;;;;;;;7.15;1.48;;;;;;;22.96;34.36;101741.59;5072374;28;20037;-76
2022/04/20 11:37:00;;;;;;;4.78;1.58;;;;;;;22.67;34.81;101746.69;5072427;28;20021;-76
2022/04/20 11:39:28;;;;;;;6.85;1.52;;;;;;;22.77;34.81;101744.44;5072418;28;20033;-76
2022/04/20 11:41:58;;;;;;;4.60;1.75;;;;;;;22.55;34.38;101738.50;5072020;28;20045;-76
2022/04/20 11:44:32;;;;;;;3.45;1.38;;;;;;;22.60;34.36;101746.56;5071151;28;20036;-77
2022/04/20 11:47:17;;;;;;;10.32;1.95;;;;;;;22.63;34.22;101740.22;5052249;28;20053;-76
2022/04/20 11:49:49;;;;;;;5.72;1.90;;;;;;;22.62;34.52;101738.63;5051903;28;20036;-76
2022/04/20 11:52:17;;;;;;;7.05;1.60;;;;;;;22.71;34.29;101732.78;5052313;28;20024;-77
2022/04/20 11:54:47;;;;;;;7.03;1.95;;;;;;;22.96;33.80;101733.22;5052130;28;20040;-76
2022/04/20 11:57:15;;;;;;;4.45;1.67;;;;;;;22.95;34.22;101728.84;5052294;28;20025;-76
2022/04/20 11:59:46;;;;;;;8.60;2.45;;;;;;;22.77;34.29;101724.94;5052212;28;20025;-76